sensor_id;sensor_type;location;lat;lon;timestamp;P1;durP1;ratioP1;P2;durP2;ratioP2
80957;SDS011;70419;42.700;23.316;2023-06-22T00:01:00;13.57;;;10.38;;
80957;SDS011;70419;42.700;23.316;2023-06-22T00:03:26;13.00;;;9.23;;
80957;SDS011;70419;42.700;23.316;2023-06-22T00:05:52;13.40;;;9.00;;
80957;SDS011;70419;42.700;23.316;2023-06-22T00:08:18;11.40;;;8.60;;
80957;SDS011;70419;42.700;23.316;2023-06-22T00:10:46;10.23;;;8.10;;
80957;SDS011;70419;42.700;23.316;2023-06-22T00:13:12;16.48;;;9.68;;
80957;SDS011;70419;42.700;23.316;2023-06-22T00:15:39;12.30;;;9.02;;
80957;SDS011;70419;42.700;23.316;2023-06-22T00:18:06;11.40;;;9.07;;
80957;SDS011;70419;42.700;23.316;2023-06-22T00:20:32;12.77;;;9.07;;
80957;SDS011;70419;42.700;23.316;2023-06-22T00:23:02;14.77;;;8.40;;
80957;SDS011;70419;42.700;23.316;2023-06-22T00:25:35;15.57;;;10.48;;
80957;SDS011;70419;42.700;23.316;2023-06-22T00:28:02;16.10;;;9.70;;
80957;SDS011;70419;42.700;23.316;2023-06-22T00:30:29;13.95;;;9.57;;
80957;SDS011;70419;42.700;23.316;2023-06-22T00:32:55;13.15;;;9.70;;
80957;SDS011;70419;42.700;23.316;2023-06-22T00:35:21;15.13;;;10.00;;
80957;SDS011;70419;42.700;23.316;2023-06-22T00:37:47;14.07;;;10.38;;
80957;SDS011;70419;42.700;23.316;2023-06-22T00:40:13;13.32;;;10.13;;
80957;SDS011;70419;42.700;23.316;2023-06-22T00:42:39;15.75;;;9.80;;
80957;SDS011;70419;42.700;23.316;2023-06-22T00:45:06;11.88;;;9.23;;
80957;SDS011;70419;42.700;23.316;2023-06-22T00:47:33;13.13;;;9.18;;
80957;SDS011;70419;42.700;23.316;2023-06-22T00:50:01;13.73;;;10.35;;
80957;SDS011;70419;42.700;23.316;2023-06-22T00:52:28;14.90;;;9.90;;
80957;SDS011;70419;42.700;23.316;2023-06-22T00:54:58;13.30;;;10.40;;
80957;SDS011;70419;42.700;23.316;2023-06-22T00:57:26;14.43;;;10.10;;
80957;SDS011;70419;42.700;23.316;2023-06-22T00:59:53;16.33;;;10.32;;
80957;SDS011;70419;42.700;23.316;2023-06-22T01:02:19;15.75;;;10.30;;
80957;SDS011;70419;42.700;23.316;2023-06-22T01:04:45;17.00;;;10.75;;
80957;SDS011;70419;42.700;23.316;2023-06-22T01:10:07;17.20;;;10.35;;
80957;SDS011;70419;42.700;23.316;2023-06-22T01:12:52;15.43;;;10.23;;
80957;SDS011;70419;42.700;23.316;2023-06-22T01:15:30;17.38;;;10.55;;
80957;SDS011;70419;42.700;23.316;2023-06-22T01:18:02;18.50;;;10.27;;
80957;SDS011;70419;42.700;23.316;2023-06-22T01:20:30;16.65;;;10.52;;
80957;SDS011;70419;42.700;23.316;2023-06-22T01:23:16;14.80;;;9.98;;
80957;SDS011;70419;42.700;23.316;2023-06-22T01:25:53;18.45;;;9.90;;
80957;SDS011;70419;42.700;23.316;2023-06-22T01:28:46;13.50;;;10.43;;
80957;SDS011;70419;42.700;23.316;2023-06-22T01:31:18;12.52;;;9.98;;
80957;SDS011;70419;42.700;23.316;2023-06-22T01:33:47;14.00;;;9.85;;
80957;SDS011;70419;42.700;23.316;2023-06-22T01:36:16;13.30;;;9.52;;
80957;SDS011;70419;42.700;23.316;2023-06-22T01:38:42;16.80;;;9.73;;
80957;SDS011;70419;42.700;23.316;2023-06-22T01:41:09;15.68;;;10.00;;
80957;SDS011;70419;42.700;23.316;2023-06-22T01:43:36;16.23;;;9.88;;
80957;SDS011;70419;42.700;23.316;2023-06-22T01:46:02;14.32;;;10.00;;
80957;SDS011;70419;42.700;23.316;2023-06-22T01:48:28;12.45;;;9.55;;
80957;SDS011;70419;42.700;23.316;2023-06-22T01:50:55;12.50;;;9.30;;
80957;SDS011;70419;42.700;23.316;2023-06-22T01:53:21;15.23;;;10.07;;
80957;SDS011;70419;42.700;23.316;2023-06-22T01:55:47;12.25;;;9.18;;
80957;SDS011;70419;42.700;23.316;2023-06-22T01:58:13;14.77;;;10.77;;
80957;SDS011;70419;42.700;23.316;2023-06-22T02:00:40;15.48;;;10.18;;
80957;SDS011;70419;42.700;23.316;2023-06-22T02:03:21;15.38;;;10.85;;
80957;SDS011;70419;42.700;23.316;2023-06-22T02:06:04;16.08;;;10.13;;
80957;SDS011;70419;42.700;23.316;2023-06-22T02:08:41;16.58;;;11.25;;
80957;SDS011;70419;42.700;23.316;2023-06-22T02:11:15;16.67;;;11.48;;
80957;SDS011;70419;42.700;23.316;2023-06-22T02:13:44;17.85;;;11.20;;
80957;SDS011;70419;42.700;23.316;2023-06-22T02:16:12;14.32;;;10.32;;
80957;SDS011;70419;42.700;23.316;2023-06-22T02:18:45;13.45;;;9.70;;
80957;SDS011;70419;42.700;23.316;2023-06-22T02:21:12;14.73;;;10.13;;
80957;SDS011;70419;42.700;23.316;2023-06-22T02:23:37;13.07;;;10.20;;
80957;SDS011;70419;42.700;23.316;2023-06-22T02:26:03;15.02;;;10.10;;
80957;SDS011;70419;42.700;23.316;2023-06-22T02:28:29;17.05;;;10.60;;
80957;SDS011;70419;42.700;23.316;2023-06-22T02:30:55;14.95;;;10.52;;
80957;SDS011;70419;42.700;23.316;2023-06-22T02:33:20;16.70;;;10.00;;
80957;SDS011;70419;42.700;23.316;2023-06-22T02:35:46;17.20;;;11.00;;
80957;SDS011;70419;42.700;23.316;2023-06-22T02:38:14;15.10;;;10.85;;
80957;SDS011;70419;42.700;23.316;2023-06-22T02:40:42;14.88;;;10.90;;
80957;SDS011;70419;42.700;23.316;2023-06-22T02:43:08;17.92;;;10.65;;
80957;SDS011;70419;42.700;23.316;2023-06-22T02:45:33;15.43;;;11.27;;
80957;SDS011;70419;42.700;23.316;2023-06-22T02:47:59;14.98;;;10.70;;
80957;SDS011;70419;42.700;23.316;2023-06-22T02:50:25;15.02;;;10.63;;
80957;SDS011;70419;42.700;23.316;2023-06-22T02:52:51;18.13;;;10.50;;
80957;SDS011;70419;42.700;23.316;2023-06-22T02:55:17;15.48;;;11.15;;
80957;SDS011;70419;42.700;23.316;2023-06-22T02:57:43;15.43;;;11.10;;
80957;SDS011;70419;42.700;23.316;2023-06-22T03:00:11;19.40;;;11.32;;
80957;SDS011;70419;42.700;23.316;2023-06-22T03:02:45;17.92;;;12.27;;
80957;SDS011;70419;42.700;23.316;2023-06-22T03:05:11;17.80;;;11.52;;
80957;SDS011;70419;42.700;23.316;2023-06-22T03:07:42;19.70;;;11.02;;
80957;SDS011;70419;42.700;23.316;2023-06-22T03:10:08;19.55;;;11.35;;
80957;SDS011;70419;42.700;23.316;2023-06-22T03:12:35;14.40;;;10.32;;
80957;SDS011;70419;42.700;23.316;2023-06-22T03:15:05;19.02;;;10.65;;
80957;SDS011;70419;42.700;23.316;2023-06-22T03:17:33;22.13;;;12.55;;
80957;SDS011;70419;42.700;23.316;2023-06-22T03:19:59;19.63;;;11.95;;
80957;SDS011;70419;42.700;23.316;2023-06-22T03:22:25;14.90;;;11.07;;
80957;SDS011;70419;42.700;23.316;2023-06-22T03:24:51;15.95;;;11.30;;
80957;SDS011;70419;42.700;23.316;2023-06-22T03:27:16;15.63;;;11.02;;
80957;SDS011;70419;42.700;23.316;2023-06-22T03:29:42;17.48;;;11.05;;
80957;SDS011;70419;42.700;23.316;2023-06-22T03:32:11;16.45;;;11.30;;
80957;SDS011;70419;42.700;23.316;2023-06-22T03:34:37;16.70;;;10.93;;
80957;SDS011;70419;42.700;23.316;2023-06-22T03:37:02;18.10;;;11.00;;
80957;SDS011;70419;42.700;23.316;2023-06-22T03:39:28;15.43;;;10.95;;
80957;SDS011;70419;42.700;23.316;2023-06-22T03:41:54;14.85;;;10.32;;
80957;SDS011;70419;42.700;23.316;2023-06-22T03:44:20;16.88;;;10.27;;
80957;SDS011;70419;42.700;23.316;2023-06-22T03:46:46;22.98;;;11.13;;
80957;SDS011;70419;42.700;23.316;2023-06-22T03:49:11;19.77;;;11.45;;
80957;SDS011;70419;42.700;23.316;2023-06-22T03:51:37;20.30;;;11.10;;
80957;SDS011;70419;42.700;23.316;2023-06-22T03:54:06;13.87;;;10.17;;
80957;SDS011;70419;42.700;23.316;2023-06-22T03:56:32;18.10;;;11.73;;
80957;SDS011;70419;42.700;23.316;2023-06-22T03:58:58;16.83;;;11.23;;
80957;SDS011;70419;42.700;23.316;2023-06-22T04:01:24;19.55;;;11.68;;
80957;SDS011;70419;42.700;23.316;2023-06-22T04:03:49;15.43;;;10.93;;
80957;SDS011;70419;42.700;23.316;2023-06-22T04:06:15;16.50;;;10.73;;
80957;SDS011;70419;42.700;23.316;2023-06-22T04:08:41;15.07;;;11.52;;
80957;SDS011;70419;42.700;23.316;2023-06-22T04:11:07;15.57;;;11.00;;
80957;SDS011;70419;42.700;23.316;2023-06-22T04:13:33;15.40;;;10.35;;
80957;SDS011;70419;42.700;23.316;2023-06-22T04:15:58;18.52;;;10.80;;
80957;SDS011;70419;42.700;23.316;2023-06-22T04:18:26;16.63;;;11.27;;
80957;SDS011;70419;42.700;23.316;2023-06-22T04:20:52;19.02;;;12.27;;
80957;SDS011;70419;42.700;23.316;2023-06-22T04:23:17;17.90;;;10.57;;
80957;SDS011;70419;42.700;23.316;2023-06-22T04:25:43;18.50;;;11.15;;
80957;SDS011;70419;42.700;23.316;2023-06-22T04:28:09;13.57;;;10.60;;
80957;SDS011;70419;42.700;23.316;2023-06-22T04:30:38;16.48;;;10.93;;
80957;SDS011;70419;42.700;23.316;2023-06-22T04:33:15;17.52;;;12.52;;
80957;SDS011;70419;42.700;23.316;2023-06-22T04:35:41;19.52;;;13.65;;
80957;SDS011;70419;42.700;23.316;2023-06-22T04:38:07;35.20;;;15.60;;
80957;SDS011;70419;42.700;23.316;2023-06-22T04:40:33;24.58;;;13.43;;
80957;SDS011;70419;42.700;23.316;2023-06-22T04:42:59;18.52;;;13.63;;
80957;SDS011;70419;42.700;23.316;2023-06-22T04:45:28;19.58;;;13.45;;
80957;SDS011;70419;42.700;23.316;2023-06-22T04:47:56;18.35;;;12.45;;
80957;SDS011;70419;42.700;23.316;2023-06-22T04:50:22;39.17;;;15.63;;
80957;SDS011;70419;42.700;23.316;2023-06-22T04:52:50;37.13;;;14.13;;
80957;SDS011;70419;42.700;23.316;2023-06-22T04:55:17;23.27;;;13.73;;
80957;SDS011;70419;42.700;23.316;2023-06-22T04:57:48;20.40;;;13.85;;
80957;SDS011;70419;42.700;23.316;2023-06-22T05:00:17;21.60;;;12.75;;
80957;SDS011;70419;42.700;23.316;2023-06-22T05:02:45;23.42;;;14.32;;
80957;SDS011;70419;42.700;23.316;2023-06-22T05:05:12;17.63;;;13.70;;
80957;SDS011;70419;42.700;23.316;2023-06-22T05:07:42;33.72;;;15.50;;
80957;SDS011;70419;42.700;23.316;2023-06-22T05:10:10;21.63;;;14.75;;
80957;SDS011;70419;42.700;23.316;2023-06-22T05:12:40;26.35;;;13.20;;
80957;SDS011;70419;42.700;23.316;2023-06-22T05:15:07;19.75;;;13.38;;
80957;SDS011;70419;42.700;23.316;2023-06-22T05:17:35;19.02;;;12.20;;
80957;SDS011;70419;42.700;23.316;2023-06-22T05:20:03;24.42;;;15.02;;
80957;SDS011;70419;42.700;23.316;2023-06-22T05:22:31;22.40;;;14.15;;
80957;SDS011;70419;42.700;23.316;2023-06-22T05:24:57;19.40;;;13.57;;
80957;SDS011;70419;42.700;23.316;2023-06-22T05:27:23;18.60;;;12.30;;
80957;SDS011;70419;42.700;23.316;2023-06-22T05:29:49;17.83;;;13.30;;
80957;SDS011;70419;42.700;23.316;2023-06-22T05:32:15;21.33;;;13.35;;
80957;SDS011;70419;42.700;23.316;2023-06-22T05:34:40;18.83;;;11.75;;
80957;SDS011;70419;42.700;23.316;2023-06-22T05:37:06;21.52;;;13.05;;
80957;SDS011;70419;42.700;23.316;2023-06-22T05:39:34;18.23;;;11.93;;
80957;SDS011;70419;42.700;23.316;2023-06-22T05:42:04;29.10;;;12.77;;
80957;SDS011;70419;42.700;23.316;2023-06-22T05:44:31;22.33;;;13.10;;
80957;SDS011;70419;42.700;23.316;2023-06-22T05:46:58;24.27;;;13.23;;
80957;SDS011;70419;42.700;23.316;2023-06-22T05:49:25;21.25;;;15.13;;
80957;SDS011;70419;42.700;23.316;2023-06-22T05:51:55;15.35;;;12.50;;
80957;SDS011;70419;42.700;23.316;2023-06-22T05:54:23;20.05;;;12.07;;
80957;SDS011;70419;42.700;23.316;2023-06-22T05:56:49;16.17;;;11.55;;
80957;SDS011;70419;42.700;23.316;2023-06-22T05:59:15;18.63;;;11.50;;
80957;SDS011;70419;42.700;23.316;2023-06-22T06:01:40;19.25;;;12.07;;
80957;SDS011;70419;42.700;23.316;2023-06-22T06:04:06;18.88;;;11.18;;
80957;SDS011;70419;42.700;23.316;2023-06-22T06:06:34;20.25;;;11.40;;
80957;SDS011;70419;42.700;23.316;2023-06-22T06:09:03;16.05;;;11.77;;
80957;SDS011;70419;42.700;23.316;2023-06-22T06:11:30;20.88;;;11.85;;
80957;SDS011;70419;42.700;23.316;2023-06-22T06:13:56;16.88;;;11.82;;
80957;SDS011;70419;42.700;23.316;2023-06-22T06:16:22;25.90;;;12.77;;
80957;SDS011;70419;42.700;23.316;2023-06-22T06:18:48;19.48;;;12.98;;
80957;SDS011;70419;42.700;23.316;2023-06-22T06:21:16;20.23;;;13.55;;
80957;SDS011;70419;42.700;23.316;2023-06-22T06:23:42;19.25;;;13.25;;
80957;SDS011;70419;42.700;23.316;2023-06-22T06:26:08;20.17;;;13.82;;
80957;SDS011;70419;42.700;23.316;2023-06-22T06:28:34;20.75;;;13.95;;
80957;SDS011;70419;42.700;23.316;2023-06-22T07:17:53;23.58;;;13.95;;
80957;SDS011;70419;42.700;23.316;2023-06-22T07:20:30;16.15;;;12.18;;
80957;SDS011;70419;42.700;23.316;2023-06-22T07:23:00;20.63;;;14.32;;
80957;SDS011;70419;42.700;23.316;2023-06-22T07:25:25;23.58;;;14.57;;
80957;SDS011;70419;42.700;23.316;2023-06-22T07:28:04;20.25;;;13.20;;
80957;SDS011;70419;42.700;23.316;2023-06-22T07:30:33;23.02;;;13.00;;
80957;SDS011;70419;42.700;23.316;2023-06-22T07:32:59;25.55;;;12.65;;
80957;SDS011;70419;42.700;23.316;2023-06-22T07:35:33;21.50;;;15.13;;
80957;SDS011;70419;42.700;23.316;2023-06-22T07:37:59;18.33;;;13.27;;
80957;SDS011;70419;42.700;23.316;2023-06-22T07:40:26;21.55;;;12.93;;
80957;SDS011;70419;42.700;23.316;2023-06-22T07:43:01;19.45;;;11.70;;
80957;SDS011;70419;42.700;23.316;2023-06-22T07:45:33;26.15;;;14.57;;
80957;SDS011;70419;42.700;23.316;2023-06-22T07:48:09;29.52;;;15.40;;
80957;SDS011;70419;42.700;23.316;2023-06-22T07:50:40;19.40;;;16.10;;
80957;SDS011;70419;42.700;23.316;2023-06-22T07:53:06;27.10;;;16.75;;
80957;SDS011;70419;42.700;23.316;2023-06-22T07:55:32;26.55;;;16.92;;
80957;SDS011;70419;42.700;23.316;2023-06-22T07:57:58;23.80;;;12.55;;
80957;SDS011;70419;42.700;23.316;2023-06-22T08:00:23;30.50;;;17.40;;
80957;SDS011;70419;42.700;23.316;2023-06-22T08:02:49;24.85;;;17.05;;
80957;SDS011;70419;42.700;23.316;2023-06-22T08:05:16;28.20;;;15.48;;
80957;SDS011;70419;42.700;23.316;2023-06-22T08:07:42;23.25;;;14.93;;
80957;SDS011;70419;42.700;23.316;2023-06-22T08:10:12;17.70;;;11.82;;
80957;SDS011;70419;42.700;23.316;2023-06-22T08:12:39;24.33;;;15.25;;
80957;SDS011;70419;42.700;23.316;2023-06-22T08:15:07;20.80;;;12.88;;
80957;SDS011;70419;42.700;23.316;2023-06-22T08:17:38;24.75;;;14.15;;
80957;SDS011;70419;42.700;23.316;2023-06-22T08:20:05;16.00;;;11.23;;
80957;SDS011;70419;42.700;23.316;2023-06-22T08:22:39;18.70;;;11.93;;
80957;SDS011;70419;42.700;23.316;2023-06-22T08:25:06;24.42;;;12.27;;
80957;SDS011;70419;42.700;23.316;2023-06-22T08:27:34;16.52;;;10.93;;
80957;SDS011;70419;42.700;23.316;2023-06-22T08:30:00;18.85;;;11.27;;
80957;SDS011;70419;42.700;23.316;2023-06-22T08:32:27;23.75;;;11.73;;
80957;SDS011;70419;42.700;23.316;2023-06-22T08:34:54;12.73;;;9.57;;
80957;SDS011;70419;42.700;23.316;2023-06-22T08:37:20;15.25;;;10.38;;
80957;SDS011;70419;42.700;23.316;2023-06-22T08:39:50;19.02;;;10.95;;
80957;SDS011;70419;42.700;23.316;2023-06-22T08:42:17;14.40;;;10.70;;
80957;SDS011;70419;42.700;23.316;2023-06-22T08:44:43;20.95;;;9.73;;
80957;SDS011;70419;42.700;23.316;2023-06-22T08:47:10;24.70;;;10.85;;
80957;SDS011;70419;42.700;23.316;2023-06-22T08:49:36;15.15;;;9.35;;
80957;SDS011;70419;42.700;23.316;2023-06-22T08:52:02;10.15;;;8.48;;
80957;SDS011;70419;42.700;23.316;2023-06-22T08:54:28;11.02;;;9.05;;
80957;SDS011;70419;42.700;23.316;2023-06-22T08:57:00;13.70;;;9.68;;
80957;SDS011;70419;42.700;23.316;2023-06-22T08:59:27;14.18;;;9.48;;
80957;SDS011;70419;42.700;23.316;2023-06-22T09:01:53;12.30;;;9.90;;
80957;SDS011;70419;42.700;23.316;2023-06-22T09:04:39;14.30;;;9.13;;
80957;SDS011;70419;42.700;23.316;2023-06-22T09:07:06;9.35;;;8.18;;
80957;SDS011;70419;42.700;23.316;2023-06-22T09:09:33;12.23;;;8.33;;
